sensor_id;sensor_type;location;lat;lon;timestamp;P1;durP1;ratioP1;P2;durP2;ratioP2
56183;SDS011;42086;53.170;6.980;2022-11-23T00:03:43;28.60;;;16.73;;
56183;SDS011;42086;53.170;6.980;2022-11-23T00:06:10;32.40;;;16.80;;
56183;SDS011;42086;53.170;6.980;2022-11-23T00:08:36;27.92;;;16.35;;
56183;SDS011;42086;53.170;6.980;2022-11-23T00:11:02;29.05;;;17.00;;
56183;SDS011;42086;53.170;6.980;2022-11-23T00:13:27;29.27;;;16.27;;
56183;SDS011;42086;53.170;6.980;2022-11-23T00:15:53;29.15;;;16.35;;
56183;SDS011;42086;53.170;6.980;2022-11-23T00:18:19;29.80;;;16.92;;
56183;SDS011;42086;53.170;6.980;2022-11-23T00:20:45;29.70;;;17.40;;
56183;SDS011;42086;53.170;6.980;2022-11-23T00:23:10;30.45;;;17.45;;
56183;SDS011;42086;53.170;6.980;2022-11-23T00:25:36;31.45;;;16.45;;
56183;SDS011;42086;53.170;6.980;2022-11-23T00:28:02;32.30;;;17.75;;
56183;SDS011;42086;53.170;6.980;2022-11-23T00:30:27;35.45;;;18.33;;
56183;SDS011;42086;53.170;6.980;2022-11-23T00:32:53;31.75;;;17.50;;
56183;SDS011;42086;53.170;6.980;2022-11-23T00:35:20;37.35;;;18.00;;
56183;SDS011;42086;53.170;6.980;2022-11-23T00:37:46;38.05;;;18.23;;
56183;SDS011;42086;53.170;6.980;2022-11-23T00:40:12;39.60;;;18.75;;
56183;SDS011;42086;53.170;6.980;2022-11-23T00:42:38;34.90;;;18.15;;
56183;SDS011;42086;53.170;6.980;2022-11-23T00:45:04;37.67;;;18.65;;
56183;SDS011;42086;53.170;6.980;2022-11-23T00:47:30;36.42;;;18.23;;
56183;SDS011;42086;53.170;6.980;2022-11-23T00:49:56;33.38;;;17.75;;
56183;SDS011;42086;53.170;6.980;2022-11-23T00:52:22;36.38;;;18.35;;
56183;SDS011;42086;53.170;6.980;2022-11-23T00:54:47;34.28;;;19.05;;
56183;SDS011;42086;53.170;6.980;2022-11-23T00:57:13;35.40;;;18.02;;
56183;SDS011;42086;53.170;6.980;2022-11-23T00:59:39;32.63;;;18.33;;
56183;SDS011;42086;53.170;6.980;2022-11-23T01:02:04;31.75;;;17.17;;
56183;SDS011;42086;53.170;6.980;2022-11-23T01:04:30;32.00;;;17.80;;
56183;SDS011;42086;53.170;6.980;2022-11-23T01:06:55;31.48;;;17.33;;
56183;SDS011;42086;53.170;6.980;2022-11-23T01:09:21;33.67;;;17.65;;
56183;SDS011;42086;53.170;6.980;2022-11-23T01:11:50;34.28;;;17.55;;
56183;SDS011;42086;53.170;6.980;2022-11-23T01:14:17;32.67;;;17.70;;
56183;SDS011;42086;53.170;6.980;2022-11-23T01:16:43;29.40;;;16.90;;
56183;SDS011;42086;53.170;6.980;2022-11-23T01:19:11;31.40;;;17.52;;
56183;SDS011;42086;53.170;6.980;2022-11-23T01:24:08;33.75;;;17.38;;
56183;SDS011;42086;53.170;6.980;2022-11-23T01:26:38;32.25;;;17.73;;
56183;SDS011;42086;53.170;6.980;2022-11-23T01:29:05;32.35;;;16.67;;
56183;SDS011;42086;53.170;6.980;2022-11-23T01:31:31;32.47;;;18.63;;
56183;SDS011;42086;53.170;6.980;2022-11-23T01:33:58;33.92;;;17.60;;
56183;SDS011;42086;53.170;6.980;2022-11-23T01:36:29;34.30;;;17.45;;
56183;SDS011;42086;53.170;6.980;2022-11-23T01:38:57;34.92;;;17.52;;
56183;SDS011;42086;53.170;6.980;2022-11-23T01:41:24;34.45;;;17.33;;
56183;SDS011;42086;53.170;6.980;2022-11-23T01:43:54;34.53;;;18.42;;
56183;SDS011;42086;53.170;6.980;2022-11-23T01:46:20;33.95;;;18.42;;
56183;SDS011;42086;53.170;6.980;2022-11-23T01:51:19;33.20;;;17.75;;
56183;SDS011;42086;53.170;6.980;2022-11-23T01:53:48;35.72;;;18.20;;
56183;SDS011;42086;53.170;6.980;2022-11-23T01:56:19;40.22;;;18.92;;
56183;SDS011;42086;53.170;6.980;2022-11-23T01:58:51;35.45;;;18.42;;
56183;SDS011;42086;53.170;6.980;2022-11-23T02:01:19;43.20;;;18.65;;
56183;SDS011;42086;53.170;6.980;2022-11-23T02:03:45;38.92;;;19.08;;
56183;SDS011;42086;53.170;6.980;2022-11-23T02:06:13;35.35;;;19.27;;
56183;SDS011;42086;53.170;6.980;2022-11-23T02:08:41;34.08;;;17.80;;
56183;SDS011;42086;53.170;6.980;2022-11-23T02:11:07;35.35;;;19.02;;
56183;SDS011;42086;53.170;6.980;2022-11-23T02:13:35;34.92;;;18.30;;
56183;SDS011;42086;53.170;6.980;2022-11-23T02:16:01;35.70;;;18.98;;
56183;SDS011;42086;53.170;6.980;2022-11-23T02:18:28;38.90;;;18.60;;
56183;SDS011;42086;53.170;6.980;2022-11-23T02:20:56;40.80;;;19.42;;
56183;SDS011;42086;53.170;6.980;2022-11-23T02:23:37;40.72;;;19.80;;
56183;SDS011;42086;53.170;6.980;2022-11-23T02:26:21;38.47;;;18.58;;
56183;SDS011;42086;53.170;6.980;2022-11-23T02:29:02;36.95;;;19.25;;
56183;SDS011;42086;53.170;6.980;2022-11-23T02:31:28;35.35;;;18.92;;
56183;SDS011;42086;53.170;6.980;2022-11-23T02:33:53;36.53;;;18.95;;
56183;SDS011;42086;53.170;6.980;2022-11-23T02:36:24;35.17;;;19.13;;
56183;SDS011;42086;53.170;6.980;2022-11-23T02:38:58;37.40;;;18.77;;
56183;SDS011;42086;53.170;6.980;2022-11-23T02:41:37;35.15;;;18.30;;
56183;SDS011;42086;53.170;6.980;2022-11-23T02:44:11;34.17;;;17.30;;
56183;SDS011;42086;53.170;6.980;2022-11-23T02:46:55;34.85;;;18.20;;
56183;SDS011;42086;53.170;6.980;2022-11-23T02:49:22;37.92;;;19.05;;
56183;SDS011;42086;53.170;6.980;2022-11-23T02:51:48;31.33;;;17.00;;
56183;SDS011;42086;53.170;6.980;2022-11-23T02:54:14;32.78;;;17.27;;
56183;SDS011;42086;53.170;6.980;2022-11-23T02:56:39;36.67;;;18.95;;
56183;SDS011;42086;53.170;6.980;2022-11-23T02:59:05;36.70;;;18.88;;
56183;SDS011;42086;53.170;6.980;2022-11-23T03:01:31;34.78;;;18.15;;
56183;SDS011;42086;53.170;6.980;2022-11-23T03:03:57;34.90;;;18.30;;
56183;SDS011;42086;53.170;6.980;2022-11-23T03:06:22;34.22;;;18.35;;
56183;SDS011;42086;53.170;6.980;2022-11-23T03:08:48;36.05;;;18.33;;
56183;SDS011;42086;53.170;6.980;2022-11-23T03:11:14;33.78;;;18.58;;
56183;SDS011;42086;53.170;6.980;2022-11-23T03:13:40;33.15;;;18.50;;
56183;SDS011;42086;53.170;6.980;2022-11-23T03:16:05;37.00;;;18.40;;
56183;SDS011;42086;53.170;6.980;2022-11-23T03:18:31;36.67;;;18.70;;
56183;SDS011;42086;53.170;6.980;2022-11-23T03:21:01;38.83;;;18.38;;
56183;SDS011;42086;53.170;6.980;2022-11-23T03:23:32;36.38;;;18.77;;
56183;SDS011;42086;53.170;6.980;2022-11-23T03:25:57;36.08;;;17.15;;
56183;SDS011;42086;53.170;6.980;2022-11-23T03:28:23;36.03;;;17.50;;
56183;SDS011;42086;53.170;6.980;2022-11-23T03:30:49;34.47;;;18.58;;
56183;SDS011;42086;53.170;6.980;2022-11-23T03:33:15;32.72;;;17.65;;
56183;SDS011;42086;53.170;6.980;2022-11-23T03:35:41;34.30;;;18.17;;
56183;SDS011;42086;53.170;6.980;2022-11-23T03:38:07;35.58;;;17.27;;
56183;SDS011;42086;53.170;6.980;2022-11-23T03:40:33;32.92;;;16.33;;
56183;SDS011;42086;53.170;6.980;2022-11-23T03:42:59;35.25;;;17.45;;
56183;SDS011;42086;53.170;6.980;2022-11-23T03:45:24;38.25;;;17.63;;
56183;SDS011;42086;53.170;6.980;2022-11-23T03:47:50;34.30;;;18.17;;
56183;SDS011;42086;53.170;6.980;2022-11-23T03:50:16;35.92;;;17.52;;
56183;SDS011;42086;53.170;6.980;2022-11-23T03:52:41;33.63;;;17.17;;
56183;SDS011;42086;53.170;6.980;2022-11-23T03:55:07;35.85;;;17.98;;
56183;SDS011;42086;53.170;6.980;2022-11-23T03:57:33;32.83;;;16.73;;
56183;SDS011;42086;53.170;6.980;2022-11-23T03:59:59;34.90;;;17.33;;
56183;SDS011;42086;53.170;6.980;2022-11-23T04:02:25;32.67;;;17.33;;
56183;SDS011;42086;53.170;6.980;2022-11-23T04:04:50;36.30;;;17.13;;
56183;SDS011;42086;53.170;6.980;2022-11-23T04:07:16;33.45;;;16.13;;
56183;SDS011;42086;53.170;6.980;2022-11-23T04:09:42;36.45;;;17.27;;
56183;SDS011;42086;53.170;6.980;2022-11-23T04:12:08;31.42;;;15.95;;
56183;SDS011;42086;53.170;6.980;2022-11-23T04:14:34;34.50;;;15.85;;
56183;SDS011;42086;53.170;6.980;2022-11-23T04:17:00;31.20;;;16.17;;
56183;SDS011;42086;53.170;6.980;2022-11-23T04:19:28;31.42;;;16.25;;
56183;SDS011;42086;53.170;6.980;2022-11-23T04:21:54;35.83;;;17.25;;
56183;SDS011;42086;53.170;6.980;2022-11-23T04:24:20;36.35;;;17.25;;
56183;SDS011;42086;53.170;6.980;2022-11-23T04:26:46;33.58;;;16.98;;
56183;SDS011;42086;53.170;6.980;2022-11-23T04:29:12;35.33;;;17.77;;
56183;SDS011;42086;53.170;6.980;2022-11-23T04:31:38;33.47;;;17.42;;
56183;SDS011;42086;53.170;6.980;2022-11-23T04:34:03;32.05;;;17.00;;
56183;SDS011;42086;53.170;6.980;2022-11-23T04:36:29;36.65;;;17.10;;
56183;SDS011;42086;53.170;6.980;2022-11-23T04:38:55;32.38;;;16.10;;
56183;SDS011;42086;53.170;6.980;2022-11-23T04:41:21;30.23;;;16.15;;
56183;SDS011;42086;53.170;6.980;2022-11-23T04:43:47;36.88;;;16.55;;
56183;SDS011;42086;53.170;6.980;2022-11-23T04:46:14;36.45;;;16.67;;
56183;SDS011;42086;53.170;6.980;2022-11-23T04:48:40;39.47;;;16.65;;
56183;SDS011;42086;53.170;6.980;2022-11-23T04:51:05;29.35;;;16.17;;
56183;SDS011;42086;53.170;6.980;2022-11-23T04:53:31;32.55;;;16.10;;
56183;SDS011;42086;53.170;6.980;2022-11-23T04:55:57;33.28;;;15.52;;
56183;SDS011;42086;53.170;6.980;2022-11-23T04:58:22;34.58;;;16.40;;
56183;SDS011;42086;53.170;6.980;2022-11-23T05:00:48;33.55;;;15.95;;
56183;SDS011;42086;53.170;6.980;2022-11-23T05:03:14;35.17;;;15.68;;
56183;SDS011;42086;53.170;6.980;2022-11-23T05:05:40;31.98;;;15.98;;
56183;SDS011;42086;53.170;6.980;2022-11-23T05:08:06;37.05;;;16.25;;
56183;SDS011;42086;53.170;6.980;2022-11-23T05:10:32;34.42;;;16.42;;
56183;SDS011;42086;53.170;6.980;2022-11-23T05:12:58;36.78;;;16.60;;
56183;SDS011;42086;53.170;6.980;2022-11-23T05:15:24;35.60;;;16.20;;
56183;SDS011;42086;53.170;6.980;2022-11-23T05:17:50;36.60;;;16.77;;
56183;SDS011;42086;53.170;6.980;2022-11-23T05:20:16;37.22;;;15.98;;
56183;SDS011;42086;53.170;6.980;2022-11-23T05:22:42;32.58;;;15.23;;
56183;SDS011;42086;53.170;6.980;2022-11-23T05:25:08;43.60;;;17.25;;
56183;SDS011;42086;53.170;6.980;2022-11-23T05:27:34;41.15;;;17.58;;
56183;SDS011;42086;53.170;6.980;2022-11-23T05:30:00;41.88;;;17.30;;
56183;SDS011;42086;53.170;6.980;2022-11-23T05:32:26;41.58;;;17.90;;
56183;SDS011;42086;53.170;6.980;2022-11-23T05:34:52;36.38;;;16.40;;
56183;SDS011;42086;53.170;6.980;2022-11-23T05:37:18;38.45;;;16.52;;
56183;SDS011;42086;53.170;6.980;2022-11-23T05:39:43;37.60;;;17.23;;
56183;SDS011;42086;53.170;6.980;2022-11-23T05:42:09;38.58;;;16.77;;
56183;SDS011;42086;53.170;6.980;2022-11-23T05:44:35;34.45;;;16.48;;
56183;SDS011;42086;53.170;6.980;2022-11-23T05:47:00;43.08;;;18.52;;
56183;SDS011;42086;53.170;6.980;2022-11-23T05:49:26;43.15;;;17.33;;
56183;SDS011;42086;53.170;6.980;2022-11-23T05:51:52;41.42;;;17.25;;
56183;SDS011;42086;53.170;6.980;2022-11-23T05:54:18;42.60;;;17.85;;
56183;SDS011;42086;53.170;6.980;2022-11-23T05:56:43;44.05;;;17.10;;
56183;SDS011;42086;53.170;6.980;2022-11-23T06:02:50;44.85;;;16.42;;
56183;SDS011;42086;53.170;6.980;2022-11-23T06:05:16;40.85;;;17.60;;
56183;SDS011;42086;53.170;6.980;2022-11-23T06:07:42;38.35;;;16.67;;
56183;SDS011;42086;53.170;6.980;2022-11-23T06:10:08;41.70;;;17.00;;
56183;SDS011;42086;53.170;6.980;2022-11-23T06:12:35;35.42;;;16.30;;
56183;SDS011;42086;53.170;6.980;2022-11-23T06:15:01;42.15;;;16.63;;
56183;SDS011;42086;53.170;6.980;2022-11-23T06:17:26;38.42;;;16.08;;
56183;SDS011;42086;53.170;6.980;2022-11-23T06:19:52;39.90;;;15.52;;
56183;SDS011;42086;53.170;6.980;2022-11-23T06:22:18;40.80;;;16.80;;
56183;SDS011;42086;53.170;6.980;2022-11-23T06:24:43;35.90;;;13.98;;
56183;SDS011;42086;53.170;6.980;2022-11-23T06:27:09;35.10;;;15.75;;
56183;SDS011;42086;53.170;6.980;2022-11-23T06:29:35;39.08;;;15.13;;
56183;SDS011;42086;53.170;6.980;2022-11-23T06:32:00;32.60;;;15.43;;
56183;SDS011;42086;53.170;6.980;2022-11-23T06:34:26;34.10;;;15.75;;
56183;SDS011;42086;53.170;6.980;2022-11-23T06:36:52;37.20;;;14.55;;
56183;SDS011;42086;53.170;6.980;2022-11-23T06:39:18;37.70;;;14.85;;
56183;SDS011;42086;53.170;6.980;2022-11-23T06:41:43;33.13;;;15.57;;
56183;SDS011;42086;53.170;6.980;2022-11-23T06:44:09;37.17;;;15.55;;
56183;SDS011;42086;53.170;6.980;2022-11-23T06:46:35;42.33;;;15.27;;
56183;SDS011;42086;53.170;6.980;2022-11-23T06:49:00;36.65;;;15.13;;
56183;SDS011;42086;53.170;6.980;2022-11-23T06:51:26;36.70;;;15.07;;
56183;SDS011;42086;53.170;6.980;2022-11-23T06:53:52;34.45;;;14.75;;
56183;SDS011;42086;53.170;6.980;2022-11-23T06:56:18;30.77;;;14.32;;
56183;SDS011;42086;53.170;6.980;2022-11-23T06:58:43;28.35;;;13.52;;
56183;SDS011;42086;53.170;6.980;2022-11-23T07:01:09;32.17;;;13.55;;
56183;SDS011;42086;53.170;6.980;2022-11-23T07:03:35;31.92;;;13.50;;
56183;SDS011;42086;53.170;6.980;2022-11-23T07:06:21;32.25;;;14.02;;
56183;SDS011;42086;53.170;6.980;2022-11-23T07:08:46;34.38;;;14.10;;
56183;SDS011;42086;53.170;6.980;2022-11-23T07:11:12;32.50;;;14.00;;
56183;SDS011;42086;53.170;6.980;2022-11-23T07:13:38;34.67;;;13.90;;
56183;SDS011;42086;53.170;6.980;2022-11-23T07:16:04;34.70;;;13.10;;
56183;SDS011;42086;53.170;6.980;2022-11-23T07:18:31;31.92;;;13.48;;
56183;SDS011;42086;53.170;6.980;2022-11-23T07:20:57;36.28;;;13.85;;
56183;SDS011;42086;53.170;6.980;2022-11-23T07:23:23;34.42;;;13.52;;
56183;SDS011;42086;53.170;6.980;2022-11-23T07:25:49;29.30;;;12.82;;
56183;SDS011;42086;53.170;6.980;2022-11-23T07:28:15;29.48;;;12.38;;
56183;SDS011;42086;53.170;6.980;2022-11-23T07:30:41;33.95;;;12.88;;
56183;SDS011;42086;53.170;6.980;2022-11-23T07:33:09;30.38;;;12.82;;
56183;SDS011;42086;53.170;6.980;2022-11-23T07:35:39;31.00;;;12.05;;
56183;SDS011;42086;53.170;6.980;2022-11-23T07:38:06;28.23;;;12.02;;
56183;SDS011;42086;53.170;6.980;2022-11-23T07:40:34;30.67;;;11.68;;
56183;SDS011;42086;53.170;6.980;2022-11-23T07:43:01;30.25;;;11.30;;
56183;SDS011;42086;53.170;6.980;2022-11-23T07:45:28;25.67;;;11.10;;
56183;SDS011;42086;53.170;6.980;2022-11-23T07:48:04;25.70;;;10.10;;
56183;SDS011;42086;53.170;6.980;2022-11-23T07:50:31;23.55;;;9.77;;
56183;SDS011;42086;53.170;6.980;2022-11-23T07:53:00;25.48;;;9.93;;
56183;SDS011;42086;53.170;6.980;2022-11-23T07:55:26;25.88;;;9.30;;
56183;SDS011;42086;53.170;6.980;2022-11-23T07:57:53;24.75;;;9.07;;
56183;SDS011;42086;53.170;6.980;2022-11-23T08:00:22;20.58;;;8.73;;
56183;SDS011;42086;53.170;6.980;2022-11-23T08:02:49;22.27;;;8.80;;
56183;SDS011;42086;53.170;6.980;2022-11-23T08:05:15;26.67;;;9.38;;
56183;SDS011;42086;53.170;6.980;2022-11-23T08:07:41;24.98;;;9.00;;
56183;SDS011;42086;53.170;6.980;2022-11-23T08:10:07;20.02;;;8.27;;
56183;SDS011;42086;53.170;6.980;2022-11-23T08:12:33;23.50;;;8.65;;
56183;SDS011;42086;53.170;6.980;2022-11-23T08:14:59;22.42;;;8.80;;
56183;SDS011;42086;53.170;6.980;2022-11-23T08:17:25;22.60;;;8.43;;
56183;SDS011;42086;53.170;6.980;2022-11-23T08:19:50;21.58;;;8.00;;
56183;SDS011;42086;53.170;6.980;2022-11-23T08:22:16;20.85;;;8.25;;
56183;SDS011;42086;53.170;6.980;2022-11-23T08:24:42;16.42;;;7.55;;
56183;SDS011;42086;53.170;6.980;2022-11-23T08:27:08;21.88;;;7.68;;
56183;SDS011;42086;53.170;6.980;2022-11-23T08:29:34;19.13;;;7.55;;
56183;SDS011;42086;53.170;6.980;2022-11-23T08:31:59;18.00;;;7.93;;
56183;SDS011;42086;53.170;6.980;2022-11-23T08:34:25;20.80;;;7.22;;
56183;SDS011;42086;53.170;6.980;2022-11-23T08:36:51;17.65;;;7.70;;
56183;SDS011;42086;53.170;6.980;2022-11-23T08:39:16;18.15;;;7.55;;
56183;SDS011;42086;53.170;6.980;2022-11-23T08:41:43;19.00;;;7.85;;
56183;SDS011;42086;53.170;6.980;2022-11-23T08:44:09;18.98;;;7.55;;
56183;SDS011;42086;53.170;6.980;2022-11-23T08:46:36;18.80;;;7.38;;
56183;SDS011;42086;53.170;6.980;2022-11-23T08:49:03;17.60;;;7.40;;
56183;SDS011;42086;53.170;6.980;2022-11-23T08:51:30;15.85;;;6.78;;
56183;SDS011;42086;53.170;6.980;2022-11-23T08:53:56;15.90;;;7.53;;
56183;SDS011;42086;53.170;6.980;2022-11-23T08:56:21;16.23;;;6.80;;
56183;SDS011;42086;53.170;6.980;2022-11-23T08:58:48;20.67;;;7.35;;
56183;SDS011;42086;53.170;6.980;2022-11-23T09:01:14;18.08;;;6.80;;
56183;SDS011;42086;53.170;6.980;2022-11-23T09:03:41;19.98;;;7.60;;
56183;SDS011;42086;53.170;6.980;2022-11-23T09:06:07;14.57;;;6.97;;
56183;SDS011;42086;53.170;6.980;2022-11-23T09:08:34;20.55;;;6.45;;
56183;SDS011;42086;53.170;6.980;2022-11-23T09:11:00;15.38;;;6.90;;
56183;SDS011;42086;53.170;6.980;2022-11-23T09:13:31;14.60;;;6.80;;
56183;SDS011;42086;53.170;6.980;2022-11-23T09:15:59;22.08;;;6.53;;
56183;SDS011;42086;53.170;6.980;2022-11-23T09:18:26;17.85;;;5.80;;
56183;SDS011;42086;53.170;6.980;2022-11-23T09:20:54;16.92;;;6.28;;
56183;SDS011;42086;53.170;6.980;2022-11-23T09:23:20;14.25;;;6.13;;
56183;SDS011;42086;53.170;6.980;2022-11-23T09:25:46;16.67;;;6.20;;
56183;SDS011;42086;53.170;6.980;2022-11-23T09:28:14;15.90;;;6.22;;
56183;SDS011;42086;53.170;6.980;2022-11-23T09:30:40;16.63;;;6.43;;
56183;SDS011;42086;53.170;6.980;2022-11-23T09:33:06;21.30;;;6.07;;
56183;SDS011;42086;53.170;6.980;2022-11-23T09:35:32;17.00;;;5.93;;
56183;SDS011;42086;53.170;6.980;2022-11-23T09:37:59;19.80;;;6.70;;
56183;SDS011;42086;53.170;6.980;2022-11-23T09:40:29;20.42;;;6.60;;
56183;SDS011;42086;53.170;6.980;2022-11-23T09:43:44;14.27;;;5.88;;
56183;SDS011;42086;53.170;6.980;2022-11-23T09:46:24;20.85;;;6.40;;
56183;SDS011;42086;53.170;6.980;2022-11-23T09:49:11;12.45;;;5.70;;
56183;SDS011;42086;53.170;6.980;2022-11-23T09:51:43;14.20;;;5.18;;
56183;SDS011;42086;53.170;6.980;2022-11-23T09:56:54;17.27;;;5.90;;
56183;SDS011;42086;53.170;6.980;2022-11-23T10:02:13;20.42;;;6.53;;
56183;SDS011;42086;53.170;6.980;2022-11-23T10:04:45;21.02;;;6.13;;
56183;SDS011;42086;53.170;6.980;2022-11-23T10:12:45;18.73;;;5.75;;
56183;SDS011;42086;53.170;6.980;2022-11-23T10:15:44;14.80;;;5.50;;
56183;SDS011;42086;53.170;6.980;2022-11-23T10:18:29;15.18;;;5.50;;
56183;SDS011;42086;53.170;6.980;2022-11-23T10:26:48;17.15;;;4.53;;
56183;SDS011;42086;53.170;6.980;2022-11-23T10:29:16;13.15;;;4.57;;
56183;SDS011;42086;53.170;6.980;2022-11-23T10:31:54;18.77;;;5.20;;
56183;SDS011;42086;53.170;6.980;2022-11-23T10:34:39;14.45;;;4.65;;
56183;SDS011;42086;53.170;6.980;2022-11-23T10:37:15;14.65;;;4.88;;
56183;SDS011;42086;53.170;6.980;2022-11-23T10:39:42;13.48;;;4.30;;
56183;SDS011;42086;53.170;6.980;2022-11-23T10:42:13;12.07;;;4.13;;
56183;SDS011;42086;53.170;6.980;2022-11-23T10:44:50;15.57;;;4.18;;
56183;SDS011;42086;53.170;6.980;2022-11-23T10:50:27;12.43;;;4.40;;
56183;SDS011;42086;53.170;6.980;2022-11-23T10:53:01;16.42;;;4.43;;
56183;SDS011;42086;53.170;6.980;2022-11-23T10:55:46;14.65;;;4.00;;
56183;SDS011;42086;53.170;6.980;2022-11-23T10:58:29;13.60;;;4.00;;
56183;SDS011;42086;53.170;6.980;2022-11-23T11:01:00;12.48;;;3.88;;
56183;SDS011;42086;53.170;6.980;2022-11-23T11:03:32;14.55;;;3.78;;
56183;SDS011;42086;53.170;6.980;2022-11-23T11:05:59;15.05;;;4.47;;
56183;SDS011;42086;53.170;6.980;2022-11-23T11:08:29;12.15;;;3.50;;
56183;SDS011;42086;53.170;6.980;2022-11-23T11:13:28;13.48;;;3.80;;
56183;SDS011;42086;53.170;6.980;2022-11-23T11:18:24;14.10;;;4.00;;
56183;SDS011;42086;53.170;6.980;2022-11-23T11:20:57;18.80;;;3.85;;
56183;SDS011;42086;53.170;6.980;2022-11-23T11:23:25;17.10;;;3.95;;
56183;SDS011;42086;53.170;6.980;2022-11-23T11:26:07;12.82;;;3.50;;
56183;SDS011;42086;53.170;6.980;2022-11-23T11:28:46;12.38;;;3.25;;
56183;SDS011;42086;53.170;6.980;2022-11-23T11:31:26;14.30;;;3.67;;
56183;SDS011;42086;53.170;6.980;2022-11-23T11:34:30;10.82;;;3.22;;
56183;SDS011;42086;53.170;6.980;2022-11-23T11:37:16;16.00;;;3.97;;
56183;SDS011;42086;53.170;6.980;2022-11-23T11:42:47;10.30;;;2.63;;
56183;SDS011;42086;53.170;6.980;2022-11-23T11:45:37;13.18;;;3.17;;
56183;SDS011;42086;53.170;6.980;2022-11-23T11:48:23;12.57;;;3.58;;
56183;SDS011;42086;53.170;6.980;2022-11-23T11:51:04;10.93;;;3.00;;
56183;SDS011;42086;53.170;6.980;2022-11-23T11:53:42;11.35;;;3.00;;
56183;SDS011;42086;53.170;6.980;2022-11-23T11:58:55;15.48;;;3.80;;
56183;SDS011;42086;53.170;6.980;2022-11-23T12:01:37;13.57;;;3.03;;
56183;SDS011;42086;53.170;6.980;2022-11-23T12:04:20;12.77;;;3.47;;
56183;SDS011;42086;53.170;6.980;2022-11-23T12:07:28;13.15;;;3.80;;
56183;SDS011;42086;53.170;6.980;2022-11-23T12:10:09;15.93;;;3.17;;
56183;SDS011;42086;53.170;6.980;2022-11-23T12:12:48;16.05;;;2.92;;
56183;SDS011;42086;53.170;6.980;2022-11-23T12:15:18;11.80;;;2.80;;
56183;SDS011;42086;53.170;6.980;2022-11-23T12:31:47;13.98;;;2.95;;
56183;SDS011;42086;53.170;6.980;2022-11-23T12:45:17;11.93;;;3.40;;
56183;SDS011;42086;53.170;6.980;2022-11-23T12:53:48;9.77;;;3.13;;
56183;SDS011;42086;53.170;6.980;2022-11-23T12:59:12;8.82;;;3.05;;
56183;SDS011;42086;53.170;6.980;2022-11-23T13:01:40;7.70;;;2.63;;
56183;SDS011;42086;53.170;6.980;2022-11-23T13:21:38;9.80;;;2.00;;
56183;SDS011;42086;53.170;6.980;2022-11-23T13:40:22;9.55;;;2.20;;
56183;SDS011;42086;53.170;6.980;2022-11-23T13:42:50;7.90;;;1.88;;
56183;SDS011;42086;53.170;6.980;2022-11-23T13:50:33;9.07;;;2.25;;
56183;SDS011;42086;53.170;6.980;2022-11-23T13:53:01;9.82;;;2.30;;
56183;SDS011;42086;53.170;6.980;2022-11-23T13:55:35;8.73;;;2.00;;
56183;SDS011;42086;53.170;6.980;2022-11-23T13:58:44;10.55;;;2.08;;
56183;SDS011;42086;53.170;6.980;2022-11-23T14:00:52;10.93;;;1.95;;
56183;SDS011;42086;53.170;6.980;2022-11-23T14:06:20;6.55;;;1.90;;
56183;SDS011;42086;53.170;6.980;2022-11-23T14:11:41;7.97;;;1.95;;
56183;SDS011;42086;53.170;6.980;2022-11-23T14:14:30;7.95;;;2.00;;
56183;SDS011;42086;53.170;6.980;2022-11-23T14:17:18;8.23;;;1.73;;
56183;SDS011;42086;53.170;6.980;2022-11-23T14:27:56;7.55;;;1.60;;
56183;SDS011;42086;53.170;6.980;2022-11-23T14:36:38;7.70;;;2.00;;
56183;SDS011;42086;53.170;6.980;2022-11-23T14:39:39;7.55;;;2.40;;
56183;SDS011;42086;53.170;6.980;2022-11-23T14:42:28;10.93;;;2.40;;
56183;SDS011;42086;53.170;6.980;2022-11-23T14:44:56;10.85;;;2.10;;
56183;SDS011;42086;53.170;6.980;2022-11-23T14:47:29;7.03;;;2.50;;
56183;SDS011;42086;53.170;6.980;2022-11-23T14:49:56;9.98;;;2.47;;
56183;SDS011;42086;53.170;6.980;2022-11-23T14:52:26;8.85;;;2.50;;
56183;SDS011;42086;53.170;6.980;2022-11-23T14:54:55;7.25;;;2.33;;
56183;SDS011;42086;53.170;6.980;2022-11-23T14:57:23;11.02;;;2.80;;
56183;SDS011;42086;53.170;6.980;2022-11-23T14:59:54;11.10;;;2.53;;
56183;SDS011;42086;53.170;6.980;2022-11-23T15:05:03;9.15;;;2.35;;
56183;SDS011;42086;53.170;6.980;2022-11-23T15:07:41;5.72;;;1.98;;
56183;SDS011;42086;53.170;6.980;2022-11-23T15:12:51;10.85;;;2.20;;
56183;SDS011;42086;53.170;6.980;2022-11-23T15:15:18;9.00;;;2.28;;
56183;SDS011;42086;53.170;6.980;2022-11-23T15:17:49;8.52;;;1.92;;
56183;SDS011;42086;53.170;6.980;2022-11-23T15:20:29;6.00;;;2.03;;
56183;SDS011;42086;53.170;6.980;2022-11-23T15:23:11;8.88;;;2.10;;
56183;SDS011;42086;53.170;6.980;2022-11-23T15:25:51;9.13;;;2.10;;
56183;SDS011;42086;53.170;6.980;2022-11-23T15:28:18;9.32;;;2.00;;
56183;SDS011;42086;53.170;6.980;2022-11-23T15:33:17;8.93;;;2.35;;
56183;SDS011;42086;53.170;6.980;2022-11-23T15:35:44;6.20;;;2.38;;
56183;SDS011;42086;53.170;6.980;2022-11-23T15:38:11;9.07;;;3.00;;
56183;SDS011;42086;53.170;6.980;2022-11-23T15:40:40;10.63;;;2.70;;
56183;SDS011;42086;53.170;6.980;2022-11-23T15:43:15;7.13;;;2.35;;
56183;SDS011;42086;53.170;6.980;2022-11-23T15:48:12;11.68;;;2.47;;
56183;SDS011;42086;53.170;6.980;2022-11-23T15:50:56;7.63;;;2.60;;
56183;SDS011;42086;53.170;6.980;2022-11-23T15:53:24;8.02;;;2.20;;
56183;SDS011;42086;53.170;6.980;2022-11-23T15:56:01;4.60;;;2.40;;
56183;SDS011;42086;53.170;6.980;2022-11-23T15:58:29;11.88;;;3.05;;
56183;SDS011;42086;53.170;6.980;2022-11-23T16:08:38;10.52;;;2.40;;
56183;SDS011;42086;53.170;6.980;2022-11-23T16:11:27;8.90;;;2.25;;
56183;SDS011;42086;53.170;6.980;2022-11-23T16:14:15;9.65;;;2.15;;
56183;SDS011;42086;53.170;6.980;2022-11-23T16:16:43;12.82;;;2.38;;
56183;SDS011;42086;53.170;6.980;2022-11-23T16:19:44;6.00;;;2.00;;
56183;SDS011;42086;53.170;6.980;2022-11-23T16:22:03;5.53;;;1.98;;
56183;SDS011;42086;53.170;6.980;2022-11-23T16:24:31;7.50;;;1.83;;
56183;SDS011;42086;53.170;6.980;2022-11-23T16:26:59;6.90;;;2.10;;
56183;SDS011;42086;53.170;6.980;2022-11-23T16:29:35;7.97;;;1.98;;
56183;SDS011;42086;53.170;6.980;2022-11-23T16:32:02;7.18;;;1.95;;
56183;SDS011;42086;53.170;6.980;2022-11-23T16:34:31;14.05;;;3.08;;
56183;SDS011;42086;53.170;6.980;2022-11-23T16:36:57;16.30;;;2.50;;
56183;SDS011;42086;53.170;6.980;2022-11-23T16:39:25;21.15;;;2.38;;
56183;SDS011;42086;53.170;6.980;2022-11-23T16:41:51;8.02;;;2.30;;
56183;SDS011;42086;53.170;6.980;2022-11-23T16:44:17;9.07;;;2.30;;
56183;SDS011;42086;53.170;6.980;2022-11-23T16:46:43;8.00;;;2.20;;
56183;SDS011;42086;53.170;6.980;2022-11-23T16:49:16;7.43;;;1.77;;
56183;SDS011;42086;53.170;6.980;2022-11-23T16:51:43;8.55;;;2.08;;
56183;SDS011;42086;53.170;6.980;2022-11-23T16:54:09;11.77;;;2.00;;
56183;SDS011;42086;53.170;6.980;2022-11-23T16:56:35;8.15;;;1.67;;
56183;SDS011;42086;53.170;6.980;2022-11-23T16:59:01;7.70;;;1.88;;
56183;SDS011;42086;53.170;6.980;2022-11-23T17:01:27;8.23;;;2.10;;
56183;SDS011;42086;53.170;6.980;2022-11-23T17:03:56;8.15;;;2.05;;
56183;SDS011;42086;53.170;6.980;2022-11-23T17:06:22;7.13;;;2.00;;
56183;SDS011;42086;53.170;6.980;2022-11-23T17:08:48;8.27;;;1.85;;
56183;SDS011;42086;53.170;6.980;2022-11-23T17:11:22;8.80;;;1.98;;
56183;SDS011;42086;53.170;6.980;2022-11-23T17:13:50;10.63;;;2.67;;
56183;SDS011;42086;53.170;6.980;2022-11-23T17:16:18;8.27;;;2.30;;